sensor_id;sensor_type;location;lat;lon;timestamp;temperature;humidity
1383;DHT22;685;47.196;11.880;2022-09-09T00:01:19;14.50;99.90
1383;DHT22;685;47.196;11.880;2022-09-09T00:03:54;14.40;99.90
1383;DHT22;685;47.196;11.880;2022-09-09T00:06:28;14.50;99.90
1383;DHT22;685;47.196;11.880;2022-09-09T00:09:02;14.20;99.90
1383;DHT22;685;47.196;11.880;2022-09-09T00:11:36;13.90;99.90
1383;DHT22;685;47.196;11.880;2022-09-09T00:14:11;14.10;99.90
1383;DHT22;685;47.196;11.880;2022-09-09T00:16:42;14.20;99.90
1383;DHT22;685;47.196;11.880;2022-09-09T00:19:22;14.20;99.90
1383;DHT22;685;47.196;11.880;2022-09-09T00:21:56;14.30;99.90
1383;DHT22;685;47.196;11.880;2022-09-09T00:24:32;14.40;99.90
1383;DHT22;685;47.196;11.880;2022-09-09T00:27:04;13.60;99.90
1383;DHT22;685;47.196;11.880;2022-09-09T00:29:37;13.20;99.90
1383;DHT22;685;47.196;11.880;2022-09-09T00:32:12;13.30;99.90
1383;DHT22;685;47.196;11.880;2022-09-09T00:34:46;13.70;99.90
1383;DHT22;685;47.196;11.880;2022-09-09T00:37:14;13.70;99.90
1383;DHT22;685;47.196;11.880;2022-09-09T00:39:45;13.20;99.90
1383;DHT22;685;47.196;11.880;2022-09-09T00:42:15;13.40;99.90
1383;DHT22;685;47.196;11.880;2022-09-09T00:44:58;13.70;99.90
1383;DHT22;685;47.196;11.880;2022-09-09T00:47:44;13.80;99.90
1383;DHT22;685;47.196;11.880;2022-09-09T00:50:30;13.90;99.90
1383;DHT22;685;47.196;11.880;2022-09-09T00:53:05;14.00;99.90
1383;DHT22;685;47.196;11.880;2022-09-09T00:55:46;13.90;99.90
1383;DHT22;685;47.196;11.880;2022-09-09T00:58:15;14.10;99.90
1383;DHT22;685;47.196;11.880;2022-09-09T01:00:43;14.00;99.90
1383;DHT22;685;47.196;11.880;2022-09-09T01:03:20;14.20;99.90
1383;DHT22;685;47.196;11.880;2022-09-09T01:05:59;14.40;99.90
1383;DHT22;685;47.196;11.880;2022-09-09T01:08:50;14.40;99.90
1383;DHT22;685;47.196;11.880;2022-09-09T01:11:23;14.60;99.90
1383;DHT22;685;47.196;11.880;2022-09-09T01:13:56;14.30;99.90
1383;DHT22;685;47.196;11.880;2022-09-09T01:16:26;14.10;99.90
1383;DHT22;685;47.196;11.880;2022-09-09T01:18:56;14.20;99.90
1383;DHT22;685;47.196;11.880;2022-09-09T01:21:32;14.00;99.90
1383;DHT22;685;47.196;11.880;2022-09-09T01:24:21;14.20;99.90
1383;DHT22;685;47.196;11.880;2022-09-09T01:26:51;14.40;99.90
1383;DHT22;685;47.196;11.880;2022-09-09T01:29:21;14.50;99.90
1383;DHT22;685;47.196;11.880;2022-09-09T01:31:54;14.40;99.90
1383;DHT22;685;47.196;11.880;2022-09-09T01:34:23;14.40;99.90
1383;DHT22;685;47.196;11.880;2022-09-09T01:36:54;14.30;99.90
1383;DHT22;685;47.196;11.880;2022-09-09T01:39:23;14.30;99.90
1383;DHT22;685;47.196;11.880;2022-09-09T01:41:51;14.10;99.90
1383;DHT22;685;47.196;11.880;2022-09-09T01:44:19;14.20;99.90
1383;DHT22;685;47.196;11.880;2022-09-09T01:46:46;14.40;99.90
1383;DHT22;685;47.196;11.880;2022-09-09T01:49:13;14.50;99.90
1383;DHT22;685;47.196;11.880;2022-09-09T01:51:41;14.60;99.90
1383;DHT22;685;47.196;11.880;2022-09-09T01:54:10;14.60;99.90
1383;DHT22;685;47.196;11.880;2022-09-09T01:56:46;14.60;99.90
1383;DHT22;685;47.196;11.880;2022-09-09T01:59:37;14.20;99.90
1383;DHT22;685;47.196;11.880;2022-09-09T02:02:10;13.80;99.90
1383;DHT22;685;47.196;11.880;2022-09-09T02:04:40;13.80;99.90
1383;DHT22;685;47.196;11.880;2022-09-09T02:07:24;13.80;99.90
1383;DHT22;685;47.196;11.880;2022-09-09T02:09:59;13.70;99.90
1383;DHT22;685;47.196;11.880;2022-09-09T02:12:29;14.10;99.90
1383;DHT22;685;47.196;11.880;2022-09-09T02:15:03;14.40;99.90
1383;DHT22;685;47.196;11.880;2022-09-09T02:17:33;14.60;99.90
1383;DHT22;685;47.196;11.880;2022-09-09T02:20:04;14.70;99.90
1383;DHT22;685;47.196;11.880;2022-09-09T02:22:34;14.50;99.90
1383;DHT22;685;47.196;11.880;2022-09-09T02:25:04;14.40;99.90
1383;DHT22;685;47.196;11.880;2022-09-09T02:27:32;14.50;99.90
1383;DHT22;685;47.196;11.880;2022-09-09T02:30:01;14.50;99.90
1383;DHT22;685;47.196;11.880;2022-09-09T02:32:30;14.40;99.90
1383;DHT22;685;47.196;11.880;2022-09-09T02:35:03;14.50;99.90
1383;DHT22;685;47.196;11.880;2022-09-09T02:37:36;14.50;99.90
1383;DHT22;685;47.196;11.880;2022-09-09T02:40:04;14.40;99.90
1383;DHT22;685;47.196;11.880;2022-09-09T02:42:34;14.40;99.90
1383;DHT22;685;47.196;11.880;2022-09-09T02:45:07;14.50;99.90
1383;DHT22;685;47.196;11.880;2022-09-09T02:47:36;14.60;99.90
1383;DHT22;685;47.196;11.880;2022-09-09T02:50:11;14.60;99.90
1383;DHT22;685;47.196;11.880;2022-09-09T02:52:47;14.70;99.90
1383;DHT22;685;47.196;11.880;2022-09-09T02:55:20;14.60;99.90
1383;DHT22;685;47.196;11.880;2022-09-09T02:57:50;14.60;99.90
1383;DHT22;685;47.196;11.880;2022-09-09T03:00:25;14.40;99.90
1383;DHT22;685;47.196;11.880;2022-09-09T03:02:52;14.30;99.90
1383;DHT22;685;47.196;11.880;2022-09-09T03:05:20;13.90;99.90
1383;DHT22;685;47.196;11.880;2022-09-09T03:07:47;13.50;99.90
1383;DHT22;685;47.196;11.880;2022-09-09T03:10:16;13.40;99.90
1383;DHT22;685;47.196;11.880;2022-09-09T03:12:43;13.80;99.90
1383;DHT22;685;47.196;11.880;2022-09-09T03:15:10;14.00;99.90
1383;DHT22;685;47.196;11.880;2022-09-09T03:17:38;13.50;99.90
1383;DHT22;685;47.196;11.880;2022-09-09T03:20:06;13.60;99.90
1383;DHT22;685;47.196;11.880;2022-09-09T03:22:34;13.80;99.90
1383;DHT22;685;47.196;11.880;2022-09-09T03:25:01;14.00;99.90
1383;DHT22;685;47.196;11.880;2022-09-09T03:27:28;14.10;99.90
1383;DHT22;685;47.196;11.880;2022-09-09T03:29:55;14.10;99.90
1383;DHT22;685;47.196;11.880;2022-09-09T03:32:23;14.30;99.90
1383;DHT22;685;47.196;11.880;2022-09-09T03:34:53;14.10;99.90
1383;DHT22;685;47.196;11.880;2022-09-09T03:37:20;14.10;99.90
1383;DHT22;685;47.196;11.880;2022-09-09T03:39:48;14.30;99.90
1383;DHT22;685;47.196;11.880;2022-09-09T03:42:15;14.40;99.90
1383;DHT22;685;47.196;11.880;2022-09-09T03:44:44;14.50;99.90
1383;DHT22;685;47.196;11.880;2022-09-09T03:47:16;14.40;99.90
1383;DHT22;685;47.196;11.880;2022-09-09T03:49:45;14.20;99.90
1383;DHT22;685;47.196;11.880;2022-09-09T03:52:13;14.20;99.90
1383;DHT22;685;47.196;11.880;2022-09-09T03:54:41;14.40;99.90
1383;DHT22;685;47.196;11.880;2022-09-09T03:57:09;14.50;99.90
1383;DHT22;685;47.196;11.880;2022-09-09T03:59:36;14.50;99.90
1383;DHT22;685;47.196;11.880;2022-09-09T04:02:03;14.30;99.90
1383;DHT22;685;47.196;11.880;2022-09-09T04:04:30;14.50;99.90
1383;DHT22;685;47.196;11.880;2022-09-09T04:06:57;14.60;99.90
1383;DHT22;685;47.196;11.880;2022-09-09T04:09:26;14.50;99.90
1383;DHT22;685;47.196;11.880;2022-09-09T04:11:53;14.40;99.90
1383;DHT22;685;47.196;11.880;2022-09-09T04:14:20;14.40;99.90
1383;DHT22;685;47.196;11.880;2022-09-09T04:16:47;14.30;99.90
1383;DHT22;685;47.196;11.880;2022-09-09T04:19:15;14.50;99.90
1383;DHT22;685;47.196;11.880;2022-09-09T04:21:41;14.70;99.90
1383;DHT22;685;47.196;11.880;2022-09-09T04:24:08;14.80;99.90
1383;DHT22;685;47.196;11.880;2022-09-09T04:26:38;14.80;99.90
1383;DHT22;685;47.196;11.880;2022-09-09T04:29:05;14.70;99.90
1383;DHT22;685;47.196;11.880;2022-09-09T04:31:33;14.60;99.90
1383;DHT22;685;47.196;11.880;2022-09-09T04:34:00;14.60;99.90
1383;DHT22;685;47.196;11.880;2022-09-09T04:36:31;14.30;99.90
1383;DHT22;685;47.196;11.880;2022-09-09T04:38:58;13.70;99.90
1383;DHT22;685;47.196;11.880;2022-09-09T04:41:27;13.90;99.90
1383;DHT22;685;47.196;11.880;2022-09-09T04:43:55;13.80;99.90
1383;DHT22;685;47.196;11.880;2022-09-09T04:46:22;14.00;99.90
1383;DHT22;685;47.196;11.880;2022-09-09T04:48:50;14.40;99.90
1383;DHT22;685;47.196;11.880;2022-09-09T04:51:18;14.60;99.90
1383;DHT22;685;47.196;11.880;2022-09-09T04:53:45;14.60;99.90
1383;DHT22;685;47.196;11.880;2022-09-09T04:56:13;14.60;99.90
1383;DHT22;685;47.196;11.880;2022-09-09T04:58:41;14.60;99.90
1383;DHT22;685;47.196;11.880;2022-09-09T05:01:11;14.40;99.90
1383;DHT22;685;47.196;11.880;2022-09-09T05:03:39;14.30;99.90
1383;DHT22;685;47.196;11.880;2022-09-09T05:06:07;14.30;99.90
1383;DHT22;685;47.196;11.880;2022-09-09T05:08:35;14.40;99.90
1383;DHT22;685;47.196;11.880;2022-09-09T05:11:03;14.20;99.90
1383;DHT22;685;47.196;11.880;2022-09-09T05:13:30;13.60;99.90
1383;DHT22;685;47.196;11.880;2022-09-09T05:15:58;13.20;99.90
1383;DHT22;685;47.196;11.880;2022-09-09T05:18:26;13.20;99.90
1383;DHT22;685;47.196;11.880;2022-09-09T05:20:58;13.60;99.90
1383;DHT22;685;47.196;11.880;2022-09-09T05:23:26;13.70;99.90
1383;DHT22;685;47.196;11.880;2022-09-09T05:25:57;13.90;99.90
1383;DHT22;685;47.196;11.880;2022-09-09T05:28:24;14.10;99.90
1383;DHT22;685;47.196;11.880;2022-09-09T05:30:56;13.60;99.90
1383;DHT22;685;47.196;11.880;2022-09-09T05:33:25;13.30;99.90
1383;DHT22;685;47.196;11.880;2022-09-09T05:35:57;13.20;99.90
1383;DHT22;685;47.196;11.880;2022-09-09T05:38:24;13.20;99.90
1383;DHT22;685;47.196;11.880;2022-09-09T05:40:51;13.60;99.90
1383;DHT22;685;47.196;11.880;2022-09-09T05:43:18;13.90;99.90
1383;DHT22;685;47.196;11.880;2022-09-09T05:45:45;14.00;99.90
1383;DHT22;685;47.196;11.880;2022-09-09T05:48:13;14.10;99.90
1383;DHT22;685;47.196;11.880;2022-09-09T05:50:42;14.20;99.90
1383;DHT22;685;47.196;11.880;2022-09-09T05:53:10;14.40;99.90
1383;DHT22;685;47.196;11.880;2022-09-09T05:55:37;14.50;99.90
1383;DHT22;685;47.196;11.880;2022-09-09T05:58:04;14.70;99.90
1383;DHT22;685;47.196;11.880;2022-09-09T06:00:31;14.50;99.90
1383;DHT22;685;47.196;11.880;2022-09-09T06:02:58;14.50;99.90
1383;DHT22;685;47.196;11.880;2022-09-09T06:05:25;14.10;99.90
1383;DHT22;685;47.196;11.880;2022-09-09T06:07:55;13.70;99.90
1383;DHT22;685;47.196;11.880;2022-09-09T06:10:22;13.50;99.90
1383;DHT22;685;47.196;11.880;2022-09-09T06:12:52;13.50;99.90
1383;DHT22;685;47.196;11.880;2022-09-09T06:15:20;13.70;99.90
1383;DHT22;685;47.196;11.880;2022-09-09T06:17:47;14.10;99.90
1383;DHT22;685;47.196;11.880;2022-09-09T06:20:15;14.20;99.90
1383;DHT22;685;47.196;11.880;2022-09-09T06:22:41;14.40;99.90
1383;DHT22;685;47.196;11.880;2022-09-09T06:25:13;14.40;99.90
1383;DHT22;685;47.196;11.880;2022-09-09T06:27:40;14.50;99.90
1383;DHT22;685;47.196;11.880;2022-09-09T06:30:08;14.40;99.90
1383;DHT22;685;47.196;11.880;2022-09-09T06:32:36;14.40;99.90
1383;DHT22;685;47.196;11.880;2022-09-09T06:35:04;14.30;99.90
1383;DHT22;685;47.196;11.880;2022-09-09T06:37:31;13.90;99.90
1383;DHT22;685;47.196;11.880;2022-09-09T06:39:58;13.60;99.90
1383;DHT22;685;47.196;11.880;2022-09-09T06:42:26;13.60;99.90
1383;DHT22;685;47.196;11.880;2022-09-09T06:44:53;13.80;99.90
1383;DHT22;685;47.196;11.880;2022-09-09T06:47:20;13.90;99.90
1383;DHT22;685;47.196;11.880;2022-09-09T06:49:47;14.10;99.90
1383;DHT22;685;47.196;11.880;2022-09-09T06:52:14;14.10;99.90
1383;DHT22;685;47.196;11.880;2022-09-09T06:54:43;13.90;99.90
1383;DHT22;685;47.196;11.880;2022-09-09T06:57:10;13.90;99.90
1383;DHT22;685;47.196;11.880;2022-09-09T06:59:39;13.90;99.90
1383;DHT22;685;47.196;11.880;2022-09-09T07:02:07;13.70;99.90
1383;DHT22;685;47.196;11.880;2022-09-09T07:04:34;13.70;99.90
1383;DHT22;685;47.196;11.880;2022-09-09T07:07:02;13.90;99.90
1383;DHT22;685;47.196;11.880;2022-09-09T07:09:29;14.00;99.90
1383;DHT22;685;47.196;11.880;2022-09-09T07:11:57;14.00;99.90
1383;DHT22;685;47.196;11.880;2022-09-09T07:14:25;14.10;99.90
1383;DHT22;685;47.196;11.880;2022-09-09T07:16:54;14.30;99.90
1383;DHT22;685;47.196;11.880;2022-09-09T07:19:21;14.40;99.90
1383;DHT22;685;47.196;11.880;2022-09-09T07:21:48;14.40;99.90
1383;DHT22;685;47.196;11.880;2022-09-09T07:24:15;14.50;99.90
1383;DHT22;685;47.196;11.880;2022-09-09T07:26:42;14.60;99.90
1383;DHT22;685;47.196;11.880;2022-09-09T07:29:09;14.60;99.90
1383;DHT22;685;47.196;11.880;2022-09-09T07:31:39;14.60;99.90
1383;DHT22;685;47.196;11.880;2022-09-09T07:34:08;14.50;99.90
1383;DHT22;685;47.196;11.880;2022-09-09T07:36:36;14.40;99.90
1383;DHT22;685;47.196;11.880;2022-09-09T07:39:07;14.30;99.90
1383;DHT22;685;47.196;11.880;2022-09-09T07:41:36;14.50;99.90
1383;DHT22;685;47.196;11.880;2022-09-09T07:44:05;14.60;99.90
1383;DHT22;685;47.196;11.880;2022-09-09T07:46:33;14.70;99.90
1383;DHT22;685;47.196;11.880;2022-09-09T07:49:01;14.70;99.90
1383;DHT22;685;47.196;11.880;2022-09-09T07:51:31;14.60;99.90
1383;DHT22;685;47.196;11.880;2022-09-09T07:54:00;14.70;99.90
1383;DHT22;685;47.196;11.880;2022-09-09T07:56:29;14.60;99.90
1383;DHT22;685;47.196;11.880;2022-09-09T07:58:57;14.50;99.90
1383;DHT22;685;47.196;11.880;2022-09-09T08:01:26;14.60;99.90
1383;DHT22;685;47.196;11.880;2022-09-09T08:03:55;14.80;99.90
1383;DHT22;685;47.196;11.880;2022-09-09T08:06:24;14.90;99.90
1383;DHT22;685;47.196;11.880;2022-09-09T08:08:53;15.00;99.90
1383;DHT22;685;47.196;11.880;2022-09-09T08:11:22;15.00;99.90
1383;DHT22;685;47.196;11.880;2022-09-09T08:13:50;14.80;99.90
1383;DHT22;685;47.196;11.880;2022-09-09T08:16:19;14.60;99.90
1383;DHT22;685;47.196;11.880;2022-09-09T08:18:47;14.60;99.90
1383;DHT22;685;47.196;11.880;2022-09-09T08:21:17;14.60;99.90
1383;DHT22;685;47.196;11.880;2022-09-09T08:23:45;14.80;99.90
1383;DHT22;685;47.196;11.880;2022-09-09T08:26:15;14.80;99.90
1383;DHT22;685;47.196;11.880;2022-09-09T08:28:43;14.80;99.90
1383;DHT22;685;47.196;11.880;2022-09-09T08:31:12;15.00;99.90
1383;DHT22;685;47.196;11.880;2022-09-09T08:33:40;15.20;99.90
1383;DHT22;685;47.196;11.880;2022-09-09T08:36:10;15.10;99.90
1383;DHT22;685;47.196;11.880;2022-09-09T08:38:37;15.00;99.90
1383;DHT22;685;47.196;11.880;2022-09-09T08:41:26;15.00;99.90
1383;DHT22;685;47.196;11.880;2022-09-09T08:44:00;15.00;99.90
1383;DHT22;685;47.196;11.880;2022-09-09T08:46:34;15.10;99.90
1383;DHT22;685;47.196;11.880;2022-09-09T08:49:06;15.10;99.90
1383;DHT22;685;47.196;11.880;2022-09-09T08:51:38;15.20;99.90
1383;DHT22;685;47.196;11.880;2022-09-09T08:54:05;15.00;99.90
1383;DHT22;685;47.196;11.880;2022-09-09T08:56:34;15.10;99.90
1383;DHT22;685;47.196;11.880;2022-09-09T08:59:03;15.10;99.90
1383;DHT22;685;47.196;11.880;2022-09-09T09:01:40;15.20;99.90
1383;DHT22;685;47.196;11.880;2022-09-09T09:04:19;15.40;99.90
1383;DHT22;685;47.196;11.880;2022-09-09T09:06:54;15.30;99.90
1383;DHT22;685;47.196;11.880;2022-09-09T09:09:33;14.90;99.90
1383;DHT22;685;47.196;11.880;2022-09-09T09:12:12;15.10;99.90
1383;DHT22;685;47.196;11.880;2022-09-09T09:14:43;15.00;99.90
1383;DHT22;685;47.196;11.880;2022-09-09T09:17:13;15.20;99.90
1383;DHT22;685;47.196;11.880;2022-09-09T09:19:42;15.30;99.90
1383;DHT22;685;47.196;11.880;2022-09-09T09:22:16;15.20;99.90
1383;DHT22;685;47.196;11.880;2022-09-09T09:24:51;15.20;99.90
1383;DHT22;685;47.196;11.880;2022-09-09T09:27:29;15.30;99.90
1383;DHT22;685;47.196;11.880;2022-09-09T09:29:59;15.30;99.90
1383;DHT22;685;47.196;11.880;2022-09-09T09:32:30;15.60;99.90
1383;DHT22;685;47.196;11.880;2022-09-09T09:34:58;15.60;99.90
1383;DHT22;685;47.196;11.880;2022-09-09T09:37:30;15.70;99.90
1383;DHT22;685;47.196;11.880;2022-09-09T09:40:08;15.70;99.90
1383;DHT22;685;47.196;11.880;2022-09-09T09:42:38;15.70;99.90
1383;DHT22;685;47.196;11.880;2022-09-09T09:45:16;15.70;99.90
1383;DHT22;685;47.196;11.880;2022-09-09T09:47:43;15.70;99.90
1383;DHT22;685;47.196;11.880;2022-09-09T09:50:16;15.80;99.90
1383;DHT22;685;47.196;11.880;2022-09-09T09:52:54;15.80;99.90
1383;DHT22;685;47.196;11.880;2022-09-09T09:55:21;15.80;99.90
1383;DHT22;685;47.196;11.880;2022-09-09T09:57:51;15.80;99.90
1383;DHT22;685;47.196;11.880;2022-09-09T10:00:20;15.80;99.90
1383;DHT22;685;47.196;11.880;2022-09-09T10:02:49;15.80;99.90
1383;DHT22;685;47.196;11.880;2022-09-09T10:05:19;15.80;99.90
1383;DHT22;685;47.196;11.880;2022-09-09T10:08:00;15.70;99.90
1383;DHT22;685;47.196;11.880;2022-09-09T10:10:40;15.70;99.90
1383;DHT22;685;47.196;11.880;2022-09-09T10:13:15;15.80;99.90
1383;DHT22;685;47.196;11.880;2022-09-09T10:15:53;15.80;99.90
1383;DHT22;685;47.196;11.880;2022-09-09T10:18:35;15.80;99.90
1383;DHT22;685;47.196;11.880;2022-09-09T10:21:11;15.90;99.90
1383;DHT22;685;47.196;11.880;2022-09-09T10:23:51;16.00;99.90
1383;DHT22;685;47.196;11.880;2022-09-09T10:26:37;16.10;99.90
1383;DHT22;685;47.196;11.880;2022-09-09T10:29:22;16.10;99.90
1383;DHT22;685;47.196;11.880;2022-09-09T10:32:01;16.00;99.90
1383;DHT22;685;47.196;11.880;2022-09-09T10:34:42;16.10;99.90
1383;DHT22;685;47.196;11.880;2022-09-09T10:37:25;15.90;99.90
1383;DHT22;685;47.196;11.880;2022-09-09T10:40:04;16.00;99.90
1383;DHT22;685;47.196;11.880;2022-09-09T10:42:35;15.90;99.90
1383;DHT22;685;47.196;11.880;2022-09-09T10:45:14;16.10;99.90
1383;DHT22;685;47.196;11.880;2022-09-09T10:48:01;16.00;99.90
1383;DHT22;685;47.196;11.880;2022-09-09T10:50:45;15.80;99.90
1383;DHT22;685;47.196;11.880;2022-09-09T10:53:22;15.60;99.90
1383;DHT22;685;47.196;11.880;2022-09-09T10:55:53;15.70;99.90
1383;DHT22;685;47.196;11.880;2022-09-09T10:58:25;15.80;99.90
1383;DHT22;685;47.196;11.880;2022-09-09T11:00:57;16.00;99.90
1383;DHT22;685;47.196;11.880;2022-09-09T11:03:28;16.10;99.90
1383;DHT22;685;47.196;11.880;2022-09-09T11:05:59;16.10;99.90
1383;DHT22;685;47.196;11.880;2022-09-09T11:08:29;16.10;99.90
1383;DHT22;685;47.196;11.880;2022-09-09T11:11:00;16.10;99.90
1383;DHT22;685;47.196;11.880;2022-09-09T11:13:34;16.30;99.90
1383;DHT22;685;47.196;11.880;2022-09-09T11:16:18;16.30;99.90
1383;DHT22;685;47.196;11.880;2022-09-09T11:18:46;16.20;99.90
1383;DHT22;685;47.196;11.880;2022-09-09T11:21:19;16.20;99.90
1383;DHT22;685;47.196;11.880;2022-09-09T11:23:50;16.30;99.90
1383;DHT22;685;47.196;11.880;2022-09-09T11:26:28;16.20;99.90
1383;DHT22;685;47.196;11.880;2022-09-09T11:29:19;16.20;99.90
1383;DHT22;685;47.196;11.880;2022-09-09T11:32:00;16.20;99.90
1383;DHT22;685;47.196;11.880;2022-09-09T11:34:39;16.20;99.90
1383;DHT22;685;47.196;11.880;2022-09-09T11:37:43;16.20;99.90
1383;DHT22;685;47.196;11.880;2022-09-09T11:40:17;16.10;99.90
1383;DHT22;685;47.196;11.880;2022-09-09T11:42:45;16.20;99.90
1383;DHT22;685;47.196;11.880;2022-09-09T11:45:22;16.20;99.90
1383;DHT22;685;47.196;11.880;2022-09-09T11:47:53;16.20;99.90
1383;DHT22;685;47.196;11.880;2022-09-09T11:50:35;16.20;99.90
1383;DHT22;685;47.196;11.880;2022-09-09T11:53:20;16.40;99.90
1383;DHT22;685;47.196;11.880;2022-09-09T11:56:00;16.40;99.90
1383;DHT22;685;47.196;11.880;2022-09-09T11:58:28;16.40;99.90
1383;DHT22;685;47.196;11.880;2022-09-09T12:00:58;16.10;99.90
1383;DHT22;685;47.196;11.880;2022-09-09T12:03:36;16.20;99.90
1383;DHT22;685;47.196;11.880;2022-09-09T12:06:11;15.90;99.90
1383;DHT22;685;47.196;11.880;2022-09-09T12:08:42;15.70;99.90
1383;DHT22;685;47.196;11.880;2022-09-09T12:11:10;15.90;99.90
1383;DHT22;685;47.196;11.880;2022-09-09T12:13:37;15.90;99.90
1383;DHT22;685;47.196;11.880;2022-09-09T12:16:04;16.00;99.90
1383;DHT22;685;47.196;11.880;2022-09-09T12:18:35;15.90;99.90
1383;DHT22;685;47.196;11.880;2022-09-09T12:21:07;16.00;99.90
1383;DHT22;685;47.196;11.880;2022-09-09T12:23:44;16.00;99.90
1383;DHT22;685;47.196;11.880;2022-09-09T12:26:26;15.80;99.90
1383;DHT22;685;47.196;11.880;2022-09-09T12:29:19;15.90;99.90
1383;DHT22;685;47.196;11.880;2022-09-09T12:31:55;16.00;99.90
1383;DHT22;685;47.196;11.880;2022-09-09T12:34:35;15.80;99.90
1383;DHT22;685;47.196;11.880;2022-09-09T12:37:06;15.80;99.90
1383;DHT22;685;47.196;11.880;2022-09-09T12:39:39;16.00;99.90
1383;DHT22;685;47.196;11.880;2022-09-09T12:42:17;16.00;99.90
1383;DHT22;685;47.196;11.880;2022-09-09T12:44:51;16.10;99.90
1383;DHT22;685;47.196;11.880;2022-09-09T12:47:20;16.10;99.90
1383;DHT22;685;47.196;11.880;2022-09-09T12:49:50;16.10;99.90
1383;DHT22;685;47.196;11.880;2022-09-09T12:52:23;16.20;99.90
1383;DHT22;685;47.196;11.880;2022-09-09T12:54:52;16.20;99.90
1383;DHT22;685;47.196;11.880;2022-09-09T12:57:23;16.20;99.90
1383;DHT22;685;47.196;11.880;2022-09-09T12:59:51;16.10;99.90
1383;DHT22;685;47.196;11.880;2022-09-09T13:02:21;16.10;99.90
1383;DHT22;685;47.196;11.880;2022-09-09T13:04:50;16.00;99.90
1383;DHT22;685;47.196;11.880;2022-09-09T13:07:18;16.00;99.90
1383;DHT22;685;47.196;11.880;2022-09-09T13:09:47;15.90;99.90
1383;DHT22;685;47.196;11.880;2022-09-09T13:12:17;16.00;99.90
1383;DHT22;685;47.196;11.880;2022-09-09T13:14:46;15.80;99.90
1383;DHT22;685;47.196;11.880;2022-09-09T13:17:20;15.80;99.90
1383;DHT22;685;47.196;11.880;2022-09-09T13:19:50;15.90;99.90
1383;DHT22;685;47.196;11.880;2022-09-09T13:22:22;16.10;99.90
1383;DHT22;685;47.196;11.880;2022-09-09T13:25:00;16.10;99.90
1383;DHT22;685;47.196;11.880;2022-09-09T13:27:31;16.00;99.90
1383;DHT22;685;47.196;11.880;2022-09-09T13:29:59;16.00;99.90
1383;DHT22;685;47.196;11.880;2022-09-09T13:32:28;16.10;99.90
1383;DHT22;685;47.196;11.880;2022-09-09T13:34:59;16.10;99.90
1383;DHT22;685;47.196;11.880;2022-09-09T13:37:31;15.90;99.90
1383;DHT22;685;47.196;11.880;2022-09-09T13:39:59;16.00;99.90
1383;DHT22;685;47.196;11.880;2022-09-09T13:42:28;15.90;99.90
1383;DHT22;685;47.196;11.880;2022-09-09T13:44:56;15.90;99.90
1383;DHT22;685;47.196;11.880;2022-09-09T13:47:29;16.00;99.90
1383;DHT22;685;47.196;11.880;2022-09-09T13:49:58;16.00;99.90
1383;DHT22;685;47.196;11.880;2022-09-09T13:52:27;16.00;99.90
1383;DHT22;685;47.196;11.880;2022-09-09T13:54:56;16.00;99.90
1383;DHT22;685;47.196;11.880;2022-09-09T13:57:25;16.10;99.90
1383;DHT22;685;47.196;11.880;2022-09-09T13:59:54;16.10;99.90
1383;DHT22;685;47.196;11.880;2022-09-09T14:02:21;16.10;99.90
1383;DHT22;685;47.196;11.880;2022-09-09T14:04:49;16.00;99.90
1383;DHT22;685;47.196;11.880;2022-09-09T14:07:22;16.00;99.90
1383;DHT22;685;47.196;11.880;2022-09-09T14:09:49;16.10;99.90
1383;DHT22;685;47.196;11.880;2022-09-09T14:12:17;16.10;99.90
1383;DHT22;685;47.196;11.880;2022-09-09T14:14:44;15.80;99.90
1383;DHT22;685;47.196;11.880;2022-09-09T14:17:11;15.90;99.90
1383;DHT22;685;47.196;11.880;2022-09-09T14:19:39;16.00;99.90
1383;DHT22;685;47.196;11.880;2022-09-09T14:22:06;16.00;99.90
1383;DHT22;685;47.196;11.880;2022-09-09T14:24:34;15.90;99.90
1383;DHT22;685;47.196;11.880;2022-09-09T14:27:01;15.90;99.90
1383;DHT22;685;47.196;11.880;2022-09-09T14:29:28;15.70;99.90
1383;DHT22;685;47.196;11.880;2022-09-09T14:31:55;15.80;99.90
1383;DHT22;685;47.196;11.880;2022-09-09T14:34:22;15.70;99.90
1383;DHT22;685;47.196;11.880;2022-09-09T14:36:49;15.80;99.90
1383;DHT22;685;47.196;11.880;2022-09-09T14:39:17;15.70;99.90
1383;DHT22;685;47.196;11.880;2022-09-09T14:41:45;15.70;99.90
1383;DHT22;685;47.196;11.880;2022-09-09T14:44:12;15.70;99.90
1383;DHT22;685;47.196;11.880;2022-09-09T14:46:39;15.70;99.90
1383;DHT22;685;47.196;11.880;2022-09-09T14:49:07;15.70;99.90
1383;DHT22;685;47.196;11.880;2022-09-09T14:51:36;15.70;99.90
1383;DHT22;685;47.196;11.880;2022-09-09T14:54:03;15.80;99.90
1383;DHT22;685;47.196;11.880;2022-09-09T14:56:32;15.70;99.90
1383;DHT22;685;47.196;11.880;2022-09-09T14:59:01;15.90;99.90
1383;DHT22;685;47.196;11.880;2022-09-09T15:01:29;15.90;99.90
1383;DHT22;685;47.196;11.880;2022-09-09T15:03:58;15.70;99.90
1383;DHT22;685;47.196;11.880;2022-09-09T15:06:29;15.70;99.90
1383;DHT22;685;47.196;11.880;2022-09-09T15:08:57;15.90;99.90
1383;DHT22;685;47.196;11.880;2022-09-09T15:11:26;16.00;99.90
1383;DHT22;685;47.196;11.880;2022-09-09T15:13:53;15.90;99.90
1383;DHT22;685;47.196;11.880;2022-09-09T15:16:24;15.70;99.90
1383;DHT22;685;47.196;11.880;2022-09-09T15:18:53;15.80;99.90
1383;DHT22;685;47.196;11.880;2022-09-09T15:21:21;15.80;99.90
1383;DHT22;685;47.196;11.880;2022-09-09T15:23:49;15.90;99.90
1383;DHT22;685;47.196;11.880;2022-09-09T15:26:16;16.00;99.90
1383;DHT22;685;47.196;11.880;2022-09-09T15:28:45;16.00;99.90
1383;DHT22;685;47.196;11.880;2022-09-09T15:31:14;16.10;99.90
1383;DHT22;685;47.196;11.880;2022-09-09T15:33:48;15.90;99.90
1383;DHT22;685;47.196;11.880;2022-09-09T15:36:17;15.90;99.90
1383;DHT22;685;47.196;11.880;2022-09-09T15:38:45;16.00;99.90
1383;DHT22;685;47.196;11.880;2022-09-09T15:41:13;16.00;99.90
1383;DHT22;685;47.196;11.880;2022-09-09T15:43:43;16.00;99.90
1383;DHT22;685;47.196;11.880;2022-09-09T15:46:29;16.00;99.90
1383;DHT22;685;47.196;11.880;2022-09-09T15:48:58;16.10;99.90
1383;DHT22;685;47.196;11.880;2022-09-09T15:51:29;16.00;99.90
1383;DHT22;685;47.196;11.880;2022-09-09T15:53:56;15.90;99.90
1383;DHT22;685;47.196;11.880;2022-09-09T15:56:24;15.80;99.90
1383;DHT22;685;47.196;11.880;2022-09-09T15:58:52;15.80;99.90
1383;DHT22;685;47.196;11.880;2022-09-09T16:01:19;15.90;99.90
1383;DHT22;685;47.196;11.880;2022-09-09T16:03:47;15.80;99.90
1383;DHT22;685;47.196;11.880;2022-09-09T16:06:18;15.60;99.90
1383;DHT22;685;47.196;11.880;2022-09-09T16:08:47;15.60;99.90
1383;DHT22;685;47.196;11.880;2022-09-09T16:11:17;15.40;99.90
1383;DHT22;685;47.196;11.880;2022-09-09T16:13:46;15.60;99.90
1383;DHT22;685;47.196;11.880;2022-09-09T16:16:14;15.50;99.90
1383;DHT22;685;47.196;11.880;2022-09-09T16:18:43;15.50;99.90
1383;DHT22;685;47.196;11.880;2022-09-09T16:21:14;15.50;99.90
1383;DHT22;685;47.196;11.880;2022-09-09T16:23:43;15.40;99.90
1383;DHT22;685;47.196;11.880;2022-09-09T16:26:15;15.00;99.90